Historyczne dane pomiarowe

Dodano dane terminowe – wersja testowa.

Dane z okresu 1951-2019

Wersja bazy: 1.34 [2019-03-16, lista zmian], aktualizacja planowana na 2019-04-15

Dane meteo z obszaru Polski uzyskane na podstawie danych udostępnionych przez Instytut Meteorologii i Gospodarki Wodnej – Państwowy Instytut Badawczy.

 

Wybierz Datę:    

       

TemperaturaWilgotnośćWiatrCiśnienieOpadyŚniegCzas trwania zjawisk
 Stacja t tx tn tng RH VA  wxwx mslp ppp RRR   cm mm wxwxwxwxwxwxwx
1983-08-14 13.4 18.8 7.9 0.3 76.3- 5.0 1.0---- 0.0------------
1983-08-13 14.8 20.9 12.4 8.8 80.0- 6.7 2.7---- 1.5------------
1983-08-12 19.2 25.7 12.1 4.5 78.3- 3.3 0.3---- 6.1------------
1983-08-11 18.7 25.7 12.0 4.6 79.0- 3.0 0.3---- 0.0------------
1983-08-10 20.0 26.1 14.9 9.2 77.0- 1.7 0.3---- 0.0------------
1983-08-09 19.2 26.0 14.9 9.2 82.0- 6.7 0.7---- 3.1------------
1983-08-08 17.1 20.8 15.3 11.7 93.3- 7.7 1.0---- 16.2------------
1983-08-07 14.4 16.1 12.1 4.2 92.8- 8.0 0.3---- 2.4------------
1983-08-06 14.3 18.0 11.8 7.5 87.5- 7.0 0.3---- 0.0------------
1983-08-05 13.0 17.5 9.6 2.5 76.5- 7.3 0.7---- 1.5------------
1983-08-04 11.4 12.8 10.4 7.0 87.3- 7.3 2.3---- 3.4------------
1983-08-03 14.5 20.3 12.8 8.3 95.3- 8.0 1.3---- 7.9------------
1983-08-02 21.1 28.0 17.8 9.6 76.3- 7.0 0.3---- 9.3------------
1983-08-01 22.1 33.1 9.5 1.3 61.3- 0.0 0.7---- 0.0------------
1983-07-31 19.0 27.6 8.2 -0.3 63.5- 0.0 0.3---- 0.0------------
1983-07-30 20.2 25.4 16.6 11.6 68.8- 4.0 1.7---- 0.1------------
1983-07-29 20.2 25.0 16.0 7.0 62.0- 6.7 2.3---- 1.0------------
1983-07-28 23.9 29.9 20.1 12.2 70.0- 3.7 1.0---- 0.0------------
1983-07-27 23.8 35.0 11.7 4.0 67.8- 2.3 0.0---- 0.0------------
1983-07-26 20.3 29.8 11.2 2.5 65.5- 0.0 0.3---- 0.0------------
1983-07-25 17.7 23.7 10.3 2.5 77.0- 3.7 0.7---- 0.0------------
1983-07-24 18.6 26.2 10.4 2.3 72.8- 3.3 1.0---- 0.2------------
1983-07-23 19.5 25.4 13.2 9.0 67.8- 4.0 1.0---- 0.0------------
1983-07-22 13.8 17.9 8.3 0.0 77.3- 7.7 1.0---- 0.0------------
1983-07-21 13.5 17.5 9.5 4.2 63.0- 5.0 1.7---- 0.0------------
1983-07-20 15.7 24.0 12.3 8.6 85.0- 8.0 1.0---- 3.8------------
1983-07-19 24.1 28.1 17.4 10.1 59.0- 4.0 1.3---- 3.1------------
1983-07-18 23.8 33.1 13.7 6.0 65.3- 0.0 0.3---- 0.6------------
1983-07-17 22.1 28.1 15.0 7.4 69.0- 0.7 0.3---- 0.0------------
1983-07-16 20.2 28.9 12.9 7.2 77.5- 4.3 1.3---- 0.4------------
1983-07-15 20.8 25.3 15.1 7.8 68.8- 4.7 0.7---- 0.0------------
1983-07-14 18.5 21.5 16.4 12.5 77.3- 7.3 1.7---- 0.0------------
1983-07-13 20.4 26.6 14.9 9.0 75.0- 2.7 2.0---- 0.3------------
1983-07-12 20.9 27.7 17.2 11.0 71.0- 6.0 2.3---- 24.8------------
1983-07-11 20.5 28.6 14.6 7.0 73.3- 5.7 0.7---- 8.9------------
1983-07-10 21.4 29.2 12.2 4.5 58.5- 2.3 1.0---- 0.0------------
1983-07-09 20.1 28.5 9.6 2.0 58.5- 1.3 1.0---- 0.0------------
1983-07-08 21.0 27.8 12.3 4.2 54.3- 0.0 1.0---- 0.0------------
1983-07-07 22.2 29.2 13.2 5.9 71.0- 1.7 0.3---- 0.0------------
1983-07-06 20.8 28.2 11.6 4.8 74.5- 0.0 0.7---- 0.0------------
1983-07-05 19.3 25.6 13.3 5.4 72.5- 0.7 0.3---- 0.0------------
1983-07-04 19.4 26.2 9.2 8.2 72.0- 0.3 0.3---- 0.0------------
1983-07-03 17.8 24.3 9.3 2.4 73.0- 3.0 0.3---- 0.0------------
1983-07-02 17.5 22.2 14.3 8.2 74.0- 3.3 1.0---- 0.0------------
1983-07-01 17.6 25.7 9.7 2.1 77.0- 5.7 1.0---- 26.1------------
1983-06-30 17.4 23.6 9.5 1.4 70.0- 0.3 1.0---- 0.0------------
1983-06-29 14.1 20.5 4.8 -3.1 68.8- 2.7 0.3---- 0.0------------
1983-06-28 15.4 20.8 14.4 10.2 74.8- 6.3 1.3---- 0.0------------
1983-06-27 20.6 26.5 15.1 8.5 73.3- 5.7 1.0---- 2.3------------
1983-06-26 20.1 26.0 15.2 7.3 72.5- 5.7 0.3---- 0.3------------
1983-06-25 22.7 29.0 11.4 3.1 60.3- 2.3 0.3---- 0.0------------
1983-06-24 17.8 26.9 6.2 -1.5 56.3- 0.0 0.3---- 0.0------------
1983-06-23 14.9 21.3 6.6 -2.4 64.0- 0.0 1.0---- 0.0------------
1983-06-22 16.0 21.8 10.3 2.5 61.5- 4.0 2.0---- 0.0------------
1983-06-21 18.6 25.0 10.4 4.3 75.5- 0.7 0.3---- 0.0------------
1983-06-20 17.0 21.6 11.9 8.6 85.0- 7.7 0.0---- 0.0------------
1983-06-19 13.5 14.9 12.1 8.0 91.0- 8.0 1.0---- 5.5------------
1983-06-18 12.3 15.4 8.3 2.2 82.5- 8.0 1.0---- 0.0------------
1983-06-17 12.4 15.2 8.4 2.0 68.5- 7.7 0.7---- 0.0------------
1983-06-16 11.6 15.9 9.1 5.1 78.3- 7.0 2.0---- 0.0------------
265.4 ms

 

Źródłem pochodzenia danych jest Instytut Meteorologii i Gospodarki Wodnej – Państwowy Instytut Badawczy. Dane Instytutu Meteorologii i Gospodarki Wodnej – Państwowego Instytutu Badawczego zostały przetworzone.

Dane źródłowe można odnaleźć na stronie https://dane.imgw.pl